sensor_id;sensor_type;location;lat;lon;timestamp;pressure;altitude;pressure_sealevel;temperature;humidity
62708;BME280;48769;51.624;5.886;2022-08-21T00:02:25;101554.38;;;16.74;96.12
62708;BME280;48769;51.624;5.886;2022-08-21T00:04:51;101558.59;;;16.64;96.49
62708;BME280;48769;51.624;5.886;2022-08-21T00:07:18;101561.09;;;16.52;97.74
62708;BME280;48769;51.624;5.886;2022-08-21T00:09:44;101552.53;;;16.47;98.03
62708;BME280;48769;51.624;5.886;2022-08-21T00:12:09;101546.09;;;16.37;98.88
62708;BME280;48769;51.624;5.886;2022-08-21T00:14:35;101557.16;;;16.31;99.24
62708;BME280;48769;51.624;5.886;2022-08-21T00:17:02;101552.22;;;16.25;99.57
62708;BME280;48769;51.624;5.886;2022-08-21T00:19:28;101556.03;;;16.21;99.98
62708;BME280;48769;51.624;5.886;2022-08-21T00:21:54;101550.03;;;16.17;100.00
62708;BME280;48769;51.624;5.886;2022-08-21T00:24:21;101545.56;;;16.18;100.00
62708;BME280;48769;51.624;5.886;2022-08-21T00:26:47;101543.66;;;16.20;99.73
62708;BME280;48769;51.624;5.886;2022-08-21T00:29:13;101536.44;;;16.22;99.31
62708;BME280;48769;51.624;5.886;2022-08-21T00:31:39;101530.53;;;16.17;99.58
62708;BME280;48769;51.624;5.886;2022-08-21T00:34:05;101539.09;;;16.22;99.40
62708;BME280;48769;51.624;5.886;2022-08-21T00:36:33;101541.28;;;16.15;99.49
62708;BME280;48769;51.624;5.886;2022-08-21T00:38:59;101529.56;;;16.18;99.34
62708;BME280;48769;51.624;5.886;2022-08-21T00:41:24;101531.31;;;16.19;99.72
62708;BME280;48769;51.624;5.886;2022-08-21T00:43:50;101536.84;;;16.16;99.43
62708;BME280;48769;51.624;5.886;2022-08-21T00:46:17;101530.91;;;16.10;99.74
62708;BME280;48769;51.624;5.886;2022-08-21T00:48:43;101536.09;;;15.99;100.00
62708;BME280;48769;51.624;5.886;2022-08-21T00:51:17;101532.47;;;16.00;100.00
62708;BME280;48769;51.624;5.886;2022-08-21T00:53:49;101533.81;;;15.93;100.00
62708;BME280;48769;51.624;5.886;2022-08-21T00:56:17;101529.22;;;15.95;100.00
62708;BME280;48769;51.624;5.886;2022-08-21T00:58:42;101530.84;;;15.98;100.00
62708;BME280;48769;51.624;5.886;2022-08-21T01:01:08;101530.38;;;15.91;100.00
62708;BME280;48769;51.624;5.886;2022-08-21T01:03:34;101530.97;;;15.96;100.00
62708;BME280;48769;51.624;5.886;2022-08-21T01:06:00;101530.75;;;15.99;100.00
62708;BME280;48769;51.624;5.886;2022-08-21T01:08:27;101533.44;;;15.99;99.96
62708;BME280;48769;51.624;5.886;2022-08-21T01:10:54;101541.63;;;15.96;99.61
62708;BME280;48769;51.624;5.886;2022-08-21T01:13:21;101530.00;;;15.97;99.45
62708;BME280;48769;51.624;5.886;2022-08-21T01:15:51;101534.75;;;15.92;99.68
62708;BME280;48769;51.624;5.886;2022-08-21T01:18:18;101532.00;;;15.94;99.94
62708;BME280;48769;51.624;5.886;2022-08-21T01:20:58;101532.06;;;15.92;99.02
62708;BME280;48769;51.624;5.886;2022-08-21T01:23:23;101530.75;;;15.85;99.67
62708;BME280;48769;51.624;5.886;2022-08-21T01:25:49;101534.00;;;15.76;100.00
62708;BME280;48769;51.624;5.886;2022-08-21T01:28:14;101535.72;;;15.77;100.00
62708;BME280;48769;51.624;5.886;2022-08-21T01:30:43;101537.63;;;15.75;100.00
62708;BME280;48769;51.624;5.886;2022-08-21T01:33:09;101545.06;;;15.70;100.00
62708;BME280;48769;51.624;5.886;2022-08-21T01:35:34;101535.25;;;15.70;100.00
62708;BME280;48769;51.624;5.886;2022-08-21T01:38:00;101541.78;;;15.64;100.00
62708;BME280;48769;51.624;5.886;2022-08-21T01:40:25;101541.00;;;15.62;100.00
62708;BME280;48769;51.624;5.886;2022-08-21T01:42:51;101532.16;;;15.62;100.00
62708;BME280;48769;51.624;5.886;2022-08-21T01:45:16;101531.50;;;15.58;100.00
62708;BME280;48769;51.624;5.886;2022-08-21T01:47:43;101528.06;;;15.56;100.00
62708;BME280;48769;51.624;5.886;2022-08-21T01:50:12;101533.78;;;15.50;100.00
62708;BME280;48769;51.624;5.886;2022-08-21T01:52:38;101523.50;;;15.44;100.00
62708;BME280;48769;51.624;5.886;2022-08-21T01:55:06;101532.06;;;15.49;100.00
62708;BME280;48769;51.624;5.886;2022-08-21T01:57:31;101536.91;;;15.42;100.00
62708;BME280;48769;51.624;5.886;2022-08-21T01:59:58;101532.41;;;15.43;100.00
62708;BME280;48769;51.624;5.886;2022-08-21T02:02:23;101537.66;;;15.45;100.00
62708;BME280;48769;51.624;5.886;2022-08-21T02:04:48;101527.75;;;15.47;100.00
62708;BME280;48769;51.624;5.886;2022-08-21T02:07:14;101536.81;;;15.44;100.00
62708;BME280;48769;51.624;5.886;2022-08-21T02:09:40;101526.25;;;15.42;100.00
62708;BME280;48769;51.624;5.886;2022-08-21T02:12:07;101534.53;;;15.38;100.00
62708;BME280;48769;51.624;5.886;2022-08-21T02:14:32;101526.72;;;15.35;100.00
62708;BME280;48769;51.624;5.886;2022-08-21T02:16:57;101524.06;;;15.35;100.00
62708;BME280;48769;51.624;5.886;2022-08-21T02:19:23;101524.81;;;15.37;100.00
62708;BME280;48769;51.624;5.886;2022-08-21T02:21:48;101521.97;;;15.40;100.00
62708;BME280;48769;51.624;5.886;2022-08-21T02:24:13;101517.78;;;15.36;100.00
62708;BME280;48769;51.624;5.886;2022-08-21T02:26:39;101520.44;;;15.36;100.00
62708;BME280;48769;51.624;5.886;2022-08-21T02:29:04;101517.59;;;15.39;100.00
62708;BME280;48769;51.624;5.886;2022-08-21T02:31:30;101517.59;;;15.39;100.00
62708;BME280;48769;51.624;5.886;2022-08-21T02:33:56;101509.59;;;15.39;100.00
62708;BME280;48769;51.624;5.886;2022-08-21T02:36:21;101512.38;;;15.37;100.00
62708;BME280;48769;51.624;5.886;2022-08-21T02:38:47;101516.25;;;15.32;100.00
62708;BME280;48769;51.624;5.886;2022-08-21T02:41:17;101506.75;;;15.28;100.00
62708;BME280;48769;51.624;5.886;2022-08-21T02:43:43;101502.09;;;15.31;100.00
62708;BME280;48769;51.624;5.886;2022-08-21T02:46:10;101507.25;;;15.34;100.00
62708;BME280;48769;51.624;5.886;2022-08-21T02:48:37;101504.56;;;15.34;100.00
62708;BME280;48769;51.624;5.886;2022-08-21T02:51:14;101505.31;;;15.36;100.00
62708;BME280;48769;51.624;5.886;2022-08-21T02:53:41;101502.66;;;15.36;100.00
62708;BME280;48769;51.624;5.886;2022-08-21T02:56:10;101496.59;;;15.34;100.00
62708;BME280;48769;51.624;5.886;2022-08-21T02:58:41;101500.28;;;15.32;100.00
62708;BME280;48769;51.624;5.886;2022-08-21T03:01:07;101497.16;;;15.25;100.00
62708;BME280;48769;51.624;5.886;2022-08-21T03:03:36;101503.50;;;15.23;100.00
62708;BME280;48769;51.624;5.886;2022-08-21T03:06:03;101496.56;;;15.20;100.00
62708;BME280;48769;51.624;5.886;2022-08-21T03:08:29;101503.69;;;15.19;100.00
62708;BME280;48769;51.624;5.886;2022-08-21T03:10:55;101493.81;;;15.22;100.00
62708;BME280;48769;51.624;5.886;2022-08-21T03:13:20;101491.72;;;15.12;100.00
62708;BME280;48769;51.624;5.886;2022-08-21T03:15:46;101490.19;;;15.08;100.00
62708;BME280;48769;51.624;5.886;2022-08-21T03:18:13;101486.84;;;15.05;100.00
62708;BME280;48769;51.624;5.886;2022-08-21T03:20:40;101486.06;;;15.03;100.00
62708;BME280;48769;51.624;5.886;2022-08-21T03:23:06;101480.84;;;15.01;100.00
62708;BME280;48769;51.624;5.886;2022-08-21T03:25:33;101485.03;;;15.05;100.00
62708;BME280;48769;51.624;5.886;2022-08-21T03:28:00;101486.47;;;15.11;100.00
62708;BME280;48769;51.624;5.886;2022-08-21T03:30:26;101491.88;;;15.09;100.00
62708;BME280;48769;51.624;5.886;2022-08-21T03:32:51;101483.31;;;15.04;100.00
62708;BME280;48769;51.624;5.886;2022-08-21T03:35:18;101480.44;;;14.93;100.00
62708;BME280;48769;51.624;5.886;2022-08-21T03:37:44;101485.78;;;14.93;100.00
62708;BME280;48769;51.624;5.886;2022-08-21T03:40:11;101487.84;;;14.88;100.00
62708;BME280;48769;51.624;5.886;2022-08-21T03:42:38;101483.41;;;14.88;100.00
62708;BME280;48769;51.624;5.886;2022-08-21T03:45:05;101485.84;;;14.91;100.00
62708;BME280;48769;51.624;5.886;2022-08-21T03:47:30;101489.56;;;14.89;100.00
62708;BME280;48769;51.624;5.886;2022-08-21T03:49:55;101480.81;;;14.87;100.00
62708;BME280;48769;51.624;5.886;2022-08-21T03:52:21;101482.69;;;14.85;100.00
62708;BME280;48769;51.624;5.886;2022-08-21T03:54:46;101486.31;;;14.84;100.00
62708;BME280;48769;51.624;5.886;2022-08-21T03:57:12;101477.94;;;14.76;100.00
62708;BME280;48769;51.624;5.886;2022-08-21T03:59:38;101487.13;;;14.70;100.00
62708;BME280;48769;51.624;5.886;2022-08-21T04:02:08;101489.00;;;14.68;100.00
62708;BME280;48769;51.624;5.886;2022-08-21T04:04:34;101487.19;;;14.68;100.00
62708;BME280;48769;51.624;5.886;2022-08-21T04:06:59;101494.84;;;14.59;100.00
62708;BME280;48769;51.624;5.886;2022-08-21T04:09:25;101489.66;;;14.57;100.00
62708;BME280;48769;51.624;5.886;2022-08-21T04:11:51;101488.13;;;14.53;100.00
62708;BME280;48769;51.624;5.886;2022-08-21T04:14:17;101485.84;;;14.45;100.00
62708;BME280;48769;51.624;5.886;2022-08-21T04:16:43;101491.84;;;14.49;100.00
62708;BME280;48769;51.624;5.886;2022-08-21T04:19:09;101484.16;;;14.44;100.00
62708;BME280;48769;51.624;5.886;2022-08-21T04:21:36;101488.59;;;14.44;100.00
62708;BME280;48769;51.624;5.886;2022-08-21T04:24:02;101489.75;;;14.40;100.00
62708;BME280;48769;51.624;5.886;2022-08-21T04:26:28;101485.16;;;14.42;100.00
62708;BME280;48769;51.624;5.886;2022-08-21T04:28:53;101487.09;;;14.40;100.00
62708;BME280;48769;51.624;5.886;2022-08-21T04:31:20;101488.97;;;14.38;100.00
62708;BME280;48769;51.624;5.886;2022-08-21T04:33:45;101487.31;;;14.35;100.00
62708;BME280;48769;51.624;5.886;2022-08-21T04:36:11;101490.84;;;14.36;100.00
62708;BME280;48769;51.624;5.886;2022-08-21T04:38:37;101491.88;;;14.33;100.00
62708;BME280;48769;51.624;5.886;2022-08-21T04:41:03;101488.28;;;14.34;100.00
62708;BME280;48769;51.624;5.886;2022-08-21T04:43:30;101486.75;;;14.30;100.00
62708;BME280;48769;51.624;5.886;2022-08-21T04:45:55;101491.56;;;14.23;100.00
62708;BME280;48769;51.624;5.886;2022-08-21T04:48:22;101500.63;;;14.19;100.00
62708;BME280;48769;51.624;5.886;2022-08-21T04:56:09;101496.88;;;14.08;100.00
62708;BME280;48769;51.624;5.886;2022-08-21T04:58:37;101494.44;;;14.03;100.00
62708;BME280;48769;51.624;5.886;2022-08-21T05:01:04;101497.88;;;14.05;100.00
62708;BME280;48769;51.624;5.886;2022-08-21T05:03:32;101499.59;;;14.06;100.00
62708;BME280;48769;51.624;5.886;2022-08-21T05:05:58;101501.66;;;14.01;100.00
62708;BME280;48769;51.624;5.886;2022-08-21T05:08:25;101503.72;;;13.96;100.00
62708;BME280;48769;51.624;5.886;2022-08-21T05:10:52;101503.81;;;13.94;100.00
62708;BME280;48769;51.624;5.886;2022-08-21T05:13:19;101506.38;;;13.96;100.00
62708;BME280;48769;51.624;5.886;2022-08-21T05:15:45;101507.16;;;13.98;100.00
62708;BME280;48769;51.624;5.886;2022-08-21T05:18:11;101500.78;;;14.00;100.00
62708;BME280;48769;51.624;5.886;2022-08-21T05:20:36;101509.31;;;14.07;100.00
62708;BME280;48769;51.624;5.886;2022-08-21T05:23:10;101513.66;;;14.08;100.00
62708;BME280;48769;51.624;5.886;2022-08-21T05:25:36;101507.31;;;14.11;100.00
62708;BME280;48769;51.624;5.886;2022-08-21T05:28:02;101511.69;;;14.12;100.00
62708;BME280;48769;51.624;5.886;2022-08-21T05:30:27;101513.91;;;14.19;100.00
62708;BME280;48769;51.624;5.886;2022-08-21T05:33:01;101515.03;;;14.15;100.00
62708;BME280;48769;51.624;5.886;2022-08-21T05:35:27;101521.72;;;14.22;100.00
62708;BME280;48769;51.624;5.886;2022-08-21T05:37:53;101529.09;;;14.33;100.00
62708;BME280;48769;51.624;5.886;2022-08-21T05:40:19;101523.50;;;14.38;100.00
62708;BME280;48769;51.624;5.886;2022-08-21T05:42:44;101529.59;;;14.40;100.00
62708;BME280;48769;51.624;5.886;2022-08-21T05:45:10;101522.38;;;14.42;100.00
62708;BME280;48769;51.624;5.886;2022-08-21T05:47:36;101538.69;;;14.52;100.00
62708;BME280;48769;51.624;5.886;2022-08-21T05:50:01;101531.06;;;14.61;100.00
62708;BME280;48769;51.624;5.886;2022-08-21T05:52:26;101532.50;;;14.67;100.00
62708;BME280;48769;51.624;5.886;2022-08-21T05:54:52;101530.19;;;14.77;100.00
62708;BME280;48769;51.624;5.886;2022-08-21T05:57:20;101533.06;;;14.88;100.00
62708;BME280;48769;51.624;5.886;2022-08-21T05:59:45;101538.25;;;15.05;100.00
62708;BME280;48769;51.624;5.886;2022-08-21T06:02:11;101533.75;;;15.22;100.00
62708;BME280;48769;51.624;5.886;2022-08-21T06:04:38;101541.75;;;15.36;100.00
62708;BME280;48769;51.624;5.886;2022-08-21T06:07:03;101536.53;;;15.49;100.00
62708;BME280;48769;51.624;5.886;2022-08-21T06:09:29;101535.78;;;15.61;100.00
62708;BME280;48769;51.624;5.886;2022-08-21T06:11:54;101534.75;;;15.78;100.00
62708;BME280;48769;51.624;5.886;2022-08-21T06:14:20;101539.22;;;15.92;100.00
62708;BME280;48769;51.624;5.886;2022-08-21T06:16:45;101525.25;;;16.02;100.00
62708;BME280;48769;51.624;5.886;2022-08-21T06:19:10;101529.41;;;16.06;100.00
62708;BME280;48769;51.624;5.886;2022-08-21T06:21:36;101538.53;;;16.17;100.00
62708;BME280;48769;51.624;5.886;2022-08-21T06:24:02;101530.03;;;16.24;100.00
62708;BME280;48769;51.624;5.886;2022-08-21T06:26:27;101536.41;;;16.36;100.00
62708;BME280;48769;51.624;5.886;2022-08-21T06:28:54;101526.75;;;16.48;100.00
62708;BME280;48769;51.624;5.886;2022-08-21T06:31:22;101527.84;;;16.58;100.00
62708;BME280;48769;51.624;5.886;2022-08-21T06:33:49;101532.47;;;16.69;100.00
62708;BME280;48769;51.624;5.886;2022-08-21T06:36:15;101540.94;;;16.75;100.00
62708;BME280;48769;51.624;5.886;2022-08-21T06:38:40;101539.28;;;16.87;100.00
62708;BME280;48769;51.624;5.886;2022-08-21T06:41:06;101541.22;;;16.98;100.00
62708;BME280;48769;51.624;5.886;2022-08-21T06:43:32;101540.69;;;17.05;100.00
62708;BME280;48769;51.624;5.886;2022-08-21T06:45:57;101535.25;;;16.94;100.00
62708;BME280;48769;51.624;5.886;2022-08-21T06:48:23;101531.56;;;17.10;100.00
62708;BME280;48769;51.624;5.886;2022-08-21T06:50:48;101531.56;;;17.22;100.00
62708;BME280;48769;51.624;5.886;2022-08-21T06:53:16;101537.09;;;17.32;100.00
62708;BME280;48769;51.624;5.886;2022-08-21T06:55:43;101539.16;;;17.41;100.00
62708;BME280;48769;51.624;5.886;2022-08-21T06:58:08;101542.56;;;17.43;100.00
62708;BME280;48769;51.624;5.886;2022-08-21T07:00:36;101545.34;;;17.55;100.00
62708;BME280;48769;51.624;5.886;2022-08-21T07:03:03;101538.50;;;17.63;100.00
62708;BME280;48769;51.624;5.886;2022-08-21T07:05:29;101540.97;;;17.66;100.00
62708;BME280;48769;51.624;5.886;2022-08-21T07:07:55;101529.13;;;17.83;100.00
62708;BME280;48769;51.624;5.886;2022-08-21T07:10:21;101537.25;;;17.94;100.00
62708;BME280;48769;51.624;5.886;2022-08-21T07:12:47;101530.69;;;17.98;100.00
62708;BME280;48769;51.624;5.886;2022-08-21T07:15:12;101540.19;;;18.03;99.95
62708;BME280;48769;51.624;5.886;2022-08-21T07:17:37;101538.06;;;18.08;99.68
62708;BME280;48769;51.624;5.886;2022-08-21T07:20:04;101546.69;;;18.24;99.27
62708;BME280;48769;51.624;5.886;2022-08-21T07:22:31;101536.84;;;18.25;98.13
62708;BME280;48769;51.624;5.886;2022-08-21T07:24:56;101534.56;;;18.31;97.75
62708;BME280;48769;51.624;5.886;2022-08-21T07:27:21;101531.53;;;18.36;97.12
62708;BME280;48769;51.624;5.886;2022-08-21T07:29:47;101533.94;;;18.52;96.98
62708;BME280;48769;51.624;5.886;2022-08-21T07:32:13;101533.78;;;18.66;96.81
62708;BME280;48769;51.624;5.886;2022-08-21T07:34:40;101531.81;;;18.81;97.42
62708;BME280;48769;51.624;5.886;2022-08-21T07:37:05;101527.84;;;18.98;96.26
62708;BME280;48769;51.624;5.886;2022-08-21T07:39:30;101530.81;;;19.06;94.89
62708;BME280;48769;51.624;5.886;2022-08-21T07:41:55;101530.69;;;19.07;94.15
62708;BME280;48769;51.624;5.886;2022-08-21T07:44:21;101526.22;;;19.19;93.61
62708;BME280;48769;51.624;5.886;2022-08-21T07:46:46;101516.16;;;19.34;93.20
62708;BME280;48769;51.624;5.886;2022-08-21T07:49:12;101525.53;;;19.51;93.52
62708;BME280;48769;51.624;5.886;2022-08-21T07:51:37;101526.75;;;19.58;93.16
62708;BME280;48769;51.624;5.886;2022-08-21T07:54:02;101529.47;;;19.69;91.48
62708;BME280;48769;51.624;5.886;2022-08-21T07:56:30;101520.94;;;19.87;91.63
62708;BME280;48769;51.624;5.886;2022-08-21T07:58:55;101530.34;;;19.81;91.96
62708;BME280;48769;51.624;5.886;2022-08-21T08:01:25;101531.69;;;19.64;92.34
62708;BME280;48769;51.624;5.886;2022-08-21T08:03:50;101531.63;;;19.53;92.49
62708;BME280;48769;51.624;5.886;2022-08-21T08:06:16;101534.72;;;19.71;92.33
62708;BME280;48769;51.624;5.886;2022-08-21T08:08:44;101522.66;;;19.76;91.98
62708;BME280;48769;51.624;5.886;2022-08-21T08:11:11;101523.63;;;19.98;90.54
62708;BME280;48769;51.624;5.886;2022-08-21T08:13:47;101523.13;;;20.04;90.47
62708;BME280;48769;51.624;5.886;2022-08-21T08:16:13;101527.16;;;20.10;88.70
62708;BME280;48769;51.624;5.886;2022-08-21T08:18:39;101524.56;;;20.19;89.54
62708;BME280;48769;51.624;5.886;2022-08-21T08:21:06;101523.09;;;20.26;89.40
62708;BME280;48769;51.624;5.886;2022-08-21T08:23:32;101524.53;;;20.30;88.86
62708;BME280;48769;51.624;5.886;2022-08-21T08:25:58;101521.44;;;20.46;87.43
62708;BME280;48769;51.624;5.886;2022-08-21T08:28:24;101514.00;;;20.61;87.01
62708;BME280;48769;51.624;5.886;2022-08-21T08:30:50;101521.88;;;20.74;86.59
62708;BME280;48769;51.624;5.886;2022-08-21T08:33:16;101518.88;;;20.88;86.27
62708;BME280;48769;51.624;5.886;2022-08-21T08:35:44;101516.59;;;21.05;85.14
62708;BME280;48769;51.624;5.886;2022-08-21T08:38:10;101513.31;;;21.01;85.21
62708;BME280;48769;51.624;5.886;2022-08-21T08:40:44;101508.84;;;21.11;82.92
62708;BME280;48769;51.624;5.886;2022-08-21T08:43:12;101502.16;;;20.85;83.63
62708;BME280;48769;51.624;5.886;2022-08-21T08:45:41;101503.19;;;20.72;83.36
62708;BME280;48769;51.624;5.886;2022-08-21T08:48:10;101502.16;;;20.85;83.72
62708;BME280;48769;51.624;5.886;2022-08-21T08:50:56;101499.09;;;21.10;85.19
62708;BME280;48769;51.624;5.886;2022-08-21T08:53:28;101478.66;;;21.40;83.25
62708;BME280;48769;51.624;5.886;2022-08-21T08:55:55;101481.06;;;21.43;82.10
62708;BME280;48769;51.624;5.886;2022-08-21T09:00:51;101483.03;;;21.41;82.03
62708;BME280;48769;51.624;5.886;2022-08-21T09:03:17;101465.31;;;21.59;79.10
62708;BME280;48769;51.624;5.886;2022-08-21T09:05:46;101469.06;;;21.78;79.79
62708;BME280;48769;51.624;5.886;2022-08-21T09:08:46;101469.50;;;21.92;76.52
62708;BME280;48769;51.624;5.886;2022-08-21T09:16:55;101473.91;;;22.03;76.09
62708;BME280;48769;51.624;5.886;2022-08-21T09:27:25;101449.38;;;22.37;70.39
62708;BME280;48769;51.624;5.886;2022-08-21T09:29:53;101445.66;;;22.19;70.38
62708;BME280;48769;51.624;5.886;2022-08-21T09:32:20;101452.13;;;22.06;71.14
62708;BME280;48769;51.624;5.886;2022-08-21T09:37:24;101453.97;;;22.06;71.46
62708;BME280;48769;51.624;5.886;2022-08-21T09:39:49;101451.53;;;22.03;69.95
62708;BME280;48769;51.624;5.886;2022-08-21T09:42:23;101440.22;;;21.99;70.21
62708;BME280;48769;51.624;5.886;2022-08-21T09:44:48;101447.31;;;22.00;70.19
62708;BME280;48769;51.624;5.886;2022-08-21T09:47:28;101458.63;;;21.94;70.52
62708;BME280;48769;51.624;5.886;2022-08-21T09:49:55;101459.03;;;21.99;70.92
62708;BME280;48769;51.624;5.886;2022-08-21T09:52:22;101461.75;;;21.99;70.90
62708;BME280;48769;51.624;5.886;2022-08-21T09:54:52;101455.41;;;22.10;70.54
62708;BME280;48769;51.624;5.886;2022-08-21T09:57:24;101453.88;;;22.17;69.19
62708;BME280;48769;51.624;5.886;2022-08-21T10:02:46;101462.09;;;22.35;70.37
62708;BME280;48769;51.624;5.886;2022-08-21T10:07:40;101450.75;;;22.22;68.58
62708;BME280;48769;51.624;5.886;2022-08-21T10:10:07;101447.06;;;22.23;67.60
62708;BME280;48769;51.624;5.886;2022-08-21T10:12:53;101446.78;;;22.26;66.70
62708;BME280;48769;51.624;5.886;2022-08-21T10:15:33;101439.94;;;22.12;67.48
62708;BME280;48769;51.624;5.886;2022-08-21T10:31:32;101436.84;;;22.75;66.01
62708;BME280;48769;51.624;5.886;2022-08-21T10:37:05;101423.81;;;22.80;63.63
62708;BME280;48769;51.624;5.886;2022-08-21T10:47:52;101432.84;;;23.18;64.56
62708;BME280;48769;51.624;5.886;2022-08-21T10:50:23;101425.75;;;23.17;63.04
62708;BME280;48769;51.624;5.886;2022-08-21T10:58:29;101433.31;;;23.41;62.17
62708;BME280;48769;51.624;5.886;2022-08-21T11:01:04;101417.25;;;23.49;59.72
62708;BME280;48769;51.624;5.886;2022-08-21T11:03:48;101421.41;;;23.43;60.17
62708;BME280;48769;51.624;5.886;2022-08-21T11:06:21;101422.69;;;23.39;60.35
62708;BME280;48769;51.624;5.886;2022-08-21T11:08:53;101421.69;;;23.40;60.78
62708;BME280;48769;51.624;5.886;2022-08-21T11:11:27;101430.19;;;23.45;62.50
62708;BME280;48769;51.624;5.886;2022-08-21T11:13:56;101426.47;;;23.46;62.04
62708;BME280;48769;51.624;5.886;2022-08-21T11:16:40;101425.34;;;23.49;61.41
62708;BME280;48769;51.624;5.886;2022-08-21T11:19:33;101431.06;;;23.36;62.66
62708;BME280;48769;51.624;5.886;2022-08-21T11:27:27;101432.94;;;23.26;63.79
62708;BME280;48769;51.624;5.886;2022-08-21T11:29:56;101417.91;;;23.23;62.39
62708;BME280;48769;51.624;5.886;2022-08-21T11:38:09;101421.66;;;23.50;61.89
62708;BME280;48769;51.624;5.886;2022-08-21T11:41:02;101409.50;;;23.64;59.56
62708;BME280;48769;51.624;5.886;2022-08-21T11:45:56;101409.56;;;23.54;58.08
62708;BME280;48769;51.624;5.886;2022-08-21T11:48:45;101407.81;;;23.35;59.81
62708;BME280;48769;51.624;5.886;2022-08-21T11:51:18;101415.19;;;23.33;60.40
62708;BME280;48769;51.624;5.886;2022-08-21T11:54:01;101417.78;;;23.52;61.89
62708;BME280;48769;51.624;5.886;2022-08-21T11:56:35;101414.50;;;23.59;59.91
62708;BME280;48769;51.624;5.886;2022-08-21T11:59:16;101412.88;;;23.66;61.09
62708;BME280;48769;51.624;5.886;2022-08-21T12:01:46;101404.22;;;23.72;59.30
62708;BME280;48769;51.624;5.886;2022-08-21T12:04:35;101414.41;;;23.78;59.50
62708;BME280;48769;51.624;5.886;2022-08-21T12:07:40;101401.03;;;23.86;56.03
62708;BME280;48769;51.624;5.886;2022-08-21T12:10:13;101396.78;;;24.01;54.33
62708;BME280;48769;51.624;5.886;2022-08-21T12:12:41;101404.59;;;24.05;55.57
62708;BME280;48769;51.624;5.886;2022-08-21T12:15:25;101402.97;;;24.30;56.22
62708;BME280;48769;51.624;5.886;2022-08-21T12:18:22;101404.84;;;24.47;52.19
62708;BME280;48769;51.624;5.886;2022-08-21T12:24:00;101415.63;;;24.47;55.40
62708;BME280;48769;51.624;5.886;2022-08-21T12:26:33;101415.63;;;24.29;54.65
62708;BME280;48769;51.624;5.886;2022-08-21T12:29:12;101417.31;;;24.12;55.35
62708;BME280;48769;51.624;5.886;2022-08-21T12:31:55;101416.47;;;24.12;55.65
62708;BME280;48769;51.624;5.886;2022-08-21T12:34:25;101416.84;;;23.99;56.10
62708;BME280;48769;51.624;5.886;2022-08-21T12:36:59;101415.81;;;23.82;55.41
62708;BME280;48769;51.624;5.886;2022-08-21T12:39:27;101411.91;;;23.67;55.63
62708;BME280;48769;51.624;5.886;2022-08-21T12:41:59;101417.78;;;23.52;55.66
62708;BME280;48769;51.624;5.886;2022-08-21T12:44:50;101422.81;;;23.47;57.54
62708;BME280;48769;51.624;5.886;2022-08-21T12:47:43;101423.88;;;23.54;57.84
62708;BME280;48769;51.624;5.886;2022-08-21T12:50:14;101413.22;;;23.63;55.98
62708;BME280;48769;51.624;5.886;2022-08-21T12:52:51;101414.75;;;23.65;55.76
62708;BME280;48769;51.624;5.886;2022-08-21T12:55:27;101417.72;;;23.72;56.38
62708;BME280;48769;51.624;5.886;2022-08-21T12:57:53;101417.47;;;23.93;54.67
62708;BME280;48769;51.624;5.886;2022-08-21T13:00:22;101401.28;;;24.29;54.35
62708;BME280;48769;51.624;5.886;2022-08-21T13:02:50;101398.06;;;24.43;52.65
62708;BME280;48769;51.624;5.886;2022-08-21T13:05:35;101398.44;;;24.12;52.72
62708;BME280;48769;51.624;5.886;2022-08-21T13:08:07;101406.13;;;23.89;53.51
62708;BME280;48769;51.624;5.886;2022-08-21T13:10:34;101403.59;;;24.23;53.80
62708;BME280;48769;51.624;5.886;2022-08-21T13:13:04;101395.03;;;24.64;52.48
62708;BME280;48769;51.624;5.886;2022-08-21T13:15:33;101395.47;;;25.03;52.05
62708;BME280;48769;51.624;5.886;2022-08-21T13:18:00;101391.00;;;25.20;51.61
62708;BME280;48769;51.624;5.886;2022-08-21T13:20:31;101383.28;;;25.25;49.40
62708;BME280;48769;51.624;5.886;2022-08-21T13:22:57;101401.84;;;25.02;51.62
62708;BME280;48769;51.624;5.886;2022-08-21T13:25:27;101385.59;;;24.68;49.24
62708;BME280;48769;51.624;5.886;2022-08-21T13:28:11;101396.38;;;24.42;50.93
62708;BME280;48769;51.624;5.886;2022-08-21T13:30:46;101394.94;;;24.20;49.96
62708;BME280;48769;51.624;5.886;2022-08-21T13:33:14;101396.28;;;24.16;51.41
62708;BME280;48769;51.624;5.886;2022-08-21T13:38:25;101389.19;;;24.51;50.95
62708;BME280;48769;51.624;5.886;2022-08-21T13:43:28;101397.22;;;24.42;50.74
62708;BME280;48769;51.624;5.886;2022-08-21T13:45:56;101383.59;;;25.64;47.62
62708;BME280;48769;51.624;5.886;2022-08-21T13:48:24;101374.59;;;26.06;46.95
62708;BME280;48769;51.624;5.886;2022-08-21T13:50:51;101372.59;;;25.58;46.72
62708;BME280;48769;51.624;5.886;2022-08-21T13:55:48;101372.41;;;26.51;46.03
62708;BME280;48769;51.624;5.886;2022-08-21T13:58:27;101368.81;;;26.18;45.20
62708;BME280;48769;51.624;5.886;2022-08-21T14:00:55;101362.31;;;25.78;45.63
62708;BME280;48769;51.624;5.886;2022-08-21T14:03:38;101372.19;;;26.11;46.81
62708;BME280;48769;51.624;5.886;2022-08-21T14:06:38;101360.88;;;26.24;44.63
62708;BME280;48769;51.624;5.886;2022-08-21T14:11:44;101355.47;;;26.32;44.03
62708;BME280;48769;51.624;5.886;2022-08-21T14:14:25;101349.00;;;26.42;43.72
62708;BME280;48769;51.624;5.886;2022-08-21T14:16:56;101354.44;;;26.58;43.71
62708;BME280;48769;51.624;5.886;2022-08-21T14:19:24;101347.16;;;26.67;42.59
62708;BME280;48769;51.624;5.886;2022-08-21T14:21:50;101353.72;;;26.80;42.90